createdAt,value
2018-12-29T00:03:42.640Z,26.37
2018-12-29T00:08:44.307Z,24.60
2018-12-29T00:13:46.076Z,25.33
2018-12-29T00:18:47.689Z,24.33
2018-12-29T00:23:49.707Z,23.37
2018-12-29T00:28:51.636Z,22.93
2018-12-29T00:33:53.695Z,23.63
2018-12-29T00:38:55.450Z,23.50
2018-12-29T00:43:57.129Z,12.77
2018-12-29T00:48:59.169Z,24.07
2018-12-29T00:54:00.961Z,26.13
2018-12-29T00:59:02.713Z,25.57
2018-12-29T01:04:06.876Z,25.97
2018-12-29T01:09:09.337Z,26.80
2018-12-29T01:14:11.009Z,27.10
2018-12-29T01:19:12.764Z,28.70
2018-12-29T01:24:14.517Z,27.50
2018-12-29T01:29:16.537Z,28.80
2018-12-29T01:34:18.298Z,27.97
2018-12-29T01:39:20.092Z,27.63
2018-12-29T01:44:22.088Z,29.20
2018-12-29T01:49:24.211Z,26.87
2018-12-29T01:54:25.948Z,26.53
2018-12-29T01:59:27.562Z,23.40
2018-12-29T02:04:29.226Z,24.23
2018-12-29T02:09:30.841Z,24.47
2018-12-29T02:14:32.512Z,25.50
2018-12-29T02:19:34.762Z,27.73
2018-12-29T02:24:36.521Z,21.83
2018-12-29T02:29:38.305Z,24.10
2018-12-29T02:34:40.400Z,23.20
2018-12-29T02:39:42.149Z,22.33
2018-12-29T02:44:46.014Z,22.90
2018-12-29T02:49:48.240Z,20.63
2018-12-29T02:54:49.935Z,18.80
2018-12-29T02:59:51.616Z,18.47
2018-12-29T03:04:53.267Z,17.97
2018-12-29T03:09:54.941Z,18.03
2018-12-29T03:14:56.588Z,17.40
2018-12-29T03:19:58.495Z,14.53
2018-12-29T03:25:00.466Z,16.23
2018-12-29T03:30:02.183Z,14.80
2018-12-29T03:35:04.312Z,14.93
2018-12-29T03:40:06.249Z,14.37
2018-12-29T03:45:08.173Z,14.90
2018-12-29T03:50:10.816Z,13.50
2018-12-29T03:55:12.587Z,15.00
2018-12-29T04:00:14.664Z,13.75
2018-12-29T04:05:16.413Z,13.80
2018-12-29T04:10:18.399Z,13.93
2018-12-29T04:15:20.354Z,13.63
2018-12-29T04:20:22.350Z,12.73
2018-12-29T04:25:24.099Z,13.87
2018-12-29T04:30:26.114Z,11.97
2018-12-29T04:35:28.098Z,11.13
2018-12-29T04:40:29.842Z,10.20
2018-12-29T04:45:31.822Z,10.87
2018-12-29T04:50:33.794Z,9.73
2018-12-29T04:55:35.842Z,10.50
2018-12-29T05:00:37.766Z,10.90
2018-12-29T05:05:39.485Z,7.83
2018-12-29T05:10:41.093Z,9.60
2018-12-29T05:15:42.763Z,7.47
2018-12-29T05:20:44.414Z,6.63
2018-12-29T05:25:46.083Z,9.20
2018-12-29T05:30:47.826Z,8.40
2018-12-29T05:35:49.573Z,6.40
2018-12-29T05:40:51.697Z,6.77
2018-12-29T05:45:53.702Z,5.53
2018-12-29T05:50:55.415Z,6.03
2018-12-29T05:55:57.393Z,3.50
2018-12-29T06:00:59.059Z,3.17
2018-12-29T06:06:00.701Z,2.90
2018-12-29T06:11:02.361Z,3.50
2018-12-29T06:16:04.046Z,4.30
2018-12-29T06:21:05.657Z,5.33
2018-12-29T06:26:07.336Z,5.50
2018-12-29T06:31:08.946Z,3.90
2018-12-29T06:36:10.615Z,7.50
2018-12-29T06:41:12.404Z,5.70
2018-12-29T06:46:14.142Z,6.80
2018-12-29T06:51:15.856Z,5.20
2018-12-29T06:56:17.543Z,4.40
2018-12-29T07:01:19.214Z,3.87
2018-12-29T07:06:20.920Z,5.43
2018-12-29T07:11:22.531Z,4.37
2018-12-29T07:16:24.206Z,4.60
2018-12-29T07:21:25.859Z,3.87
2018-12-29T07:26:27.531Z,3.60
2018-12-29T07:31:29.247Z,3.33
2018-12-29T07:36:30.994Z,3.53
2018-12-29T07:41:33.014Z,2.90
2018-12-29T07:46:34.751Z,4.30
2018-12-29T07:51:36.469Z,3.03
2018-12-29T07:56:38.571Z,3.03
2018-12-29T08:01:40.250Z,4.90
2018-12-29T08:06:41.904Z,5.20
2018-12-29T08:11:43.830Z,4.27
2018-12-29T08:16:45.536Z,3.50
2018-12-29T08:21:47.151Z,4.00
2018-12-29T08:26:49.147Z,4.00
2018-12-29T08:31:50.849Z,4.93
2018-12-29T08:36:52.468Z,6.50
2018-12-29T08:41:54.543Z,5.63
2018-12-29T08:46:56.217Z,6.63
2018-12-29T08:51:58.179Z,4.73
2018-12-29T08:56:59.925Z,5.20
2018-12-29T09:02:01.841Z,4.67
2018-12-29T09:07:03.572Z,4.60
2018-12-29T09:12:05.307Z,6.87
2018-12-29T09:17:12.114Z,4.47
2018-12-29T09:22:10.592Z,6.73
2018-12-29T09:27:12.900Z,5.17
2018-12-29T09:32:14.684Z,5.57
2018-12-29T09:37:16.483Z,6.20
2018-12-29T09:42:18.297Z,5.53
2018-12-29T09:47:20.042Z,5.83
2018-12-29T09:52:21.750Z,6.33
2018-12-29T09:57:25.396Z,7.30
2018-12-29T10:02:27.020Z,6.40
2018-12-29T10:07:28.706Z,6.40
2018-12-29T10:12:30.614Z,4.80
2018-12-29T10:17:32.222Z,5.77
2018-12-29T10:22:33.952Z,6.50
2018-12-29T10:27:35.559Z,7.20
2018-12-29T10:32:37.242Z,5.00
2018-12-29T10:37:38.861Z,6.80
2018-12-29T10:42:41.059Z,5.00
2018-12-29T10:47:43.090Z,7.33
2018-12-29T10:52:45.316Z,6.47
2018-12-29T10:57:47.287Z,6.63
2018-12-29T11:02:49.322Z,7.17
2018-12-29T11:07:51.001Z,8.00
2018-12-29T11:12:52.685Z,8.20
2018-12-29T11:17:54.336Z,12.10
2018-12-29T11:22:58.494Z,17.60
2018-12-29T11:28:00.608Z,24.40
2018-12-29T11:33:02.220Z,26.17
2018-12-29T11:38:03.998Z,26.23
2018-12-29T11:43:05.684Z,29.57
2018-12-29T11:48:07.369Z,34.50
2018-12-29T11:53:08.979Z,26.97
2018-12-29T11:58:10.672Z,29.40
2018-12-29T12:03:12.293Z,31.67
2018-12-29T12:08:13.953Z,28.10
2018-12-29T12:13:15.601Z,32.13
2018-12-29T12:18:17.495Z,32.73
2018-12-29T12:23:19.474Z,42.80
2018-12-29T12:28:21.218Z,41.33
2018-12-29T12:33:22.980Z,40.20
2018-12-29T12:38:24.963Z,30.47
2018-12-29T12:43:27.257Z,39.30
2018-12-29T12:48:29.308Z,39.97
2018-12-29T12:53:31.295Z,36.17
2018-12-29T12:58:33.010Z,48.33
2018-12-29T13:03:35.088Z,40.77
2018-12-29T13:08:36.991Z,39.00
2018-12-29T13:13:38.721Z,41.43
2018-12-29T13:18:40.328Z,32.80
2018-12-29T13:23:42.072Z,18.97
2018-12-29T13:28:43.745Z,32.30
2018-12-29T13:33:45.696Z,24.27
2018-12-29T13:38:47.521Z,19.83
2018-12-29T13:43:51.838Z,17.10
2018-12-29T13:48:53.906Z,13.17
2018-12-29T13:53:55.932Z,11.97
2018-12-29T13:58:58.121Z,12.70
2018-12-29T14:03:59.730Z,14.00
2018-12-29T14:09:03.200Z,14.97
2018-12-29T14:14:05.267Z,11.63
2018-12-29T14:19:06.877Z,11.17
2018-12-29T14:24:08.591Z,10.53
2018-12-29T14:29:10.206Z,8.47
2018-12-29T14:34:12.539Z,9.17
2018-12-29T14:39:14.222Z,11.03
2018-12-29T14:44:16.009Z,9.93
2018-12-29T14:49:17.667Z,14.50
2018-12-29T14:54:19.577Z,8.60
2018-12-29T14:59:21.258Z,6.57
2018-12-29T15:04:23.209Z,7.70
2018-12-29T15:09:25.001Z,8.20
2018-12-29T15:14:26.619Z,8.60
2018-12-29T15:19:30.496Z,7.10
2018-12-29T15:24:32.401Z,8.47
2018-12-29T15:29:34.161Z,8.43
2018-12-29T15:34:36.224Z,11.07
2018-12-29T15:39:37.986Z,15.77
2018-12-29T15:44:39.766Z,20.87
2018-12-29T15:49:41.884Z,23.37
2018-12-29T15:54:43.503Z,24.30
2018-12-29T15:59:45.164Z,27.20
2018-12-29T16:04:46.821Z,28.47
2018-12-29T16:09:48.763Z,29.40
2018-12-29T16:14:50.383Z,25.83
2018-12-29T16:19:52.655Z,27.73
2018-12-29T16:24:54.754Z,24.57
2018-12-29T16:29:56.487Z,21.10
2018-12-29T16:34:58.250Z,23.50
2018-12-29T16:40:02.136Z,22.80
2018-12-29T16:45:06.161Z,28.70
2018-12-29T16:50:08.366Z,23.93
2018-12-29T16:55:10.456Z,21.90
2018-12-29T17:00:12.263Z,24.80
2018-12-29T17:05:14.322Z,22.90
2018-12-29T17:10:16.194Z,20.07
2018-12-29T17:15:18.267Z,21.40
2018-12-29T17:20:20.043Z,18.73
2018-12-29T17:25:23.317Z,16.20
2018-12-29T17:30:25.275Z,18.33
2018-12-29T17:35:26.969Z,15.90
2018-12-29T17:40:28.606Z,15.77
2018-12-29T17:45:30.276Z,8.60
2018-12-29T17:50:31.942Z,16.43
2018-12-29T17:55:33.778Z,14.17
2018-12-29T18:00:35.785Z,15.50
2018-12-29T18:05:37.744Z,20.87
2018-12-29T18:10:40.040Z,15.80
2018-12-29T18:15:41.956Z,16.57
2018-12-29T18:20:43.585Z,18.97
2018-12-29T18:25:45.955Z,20.10
2018-12-29T18:30:47.880Z,17.70
2018-12-29T18:35:50.997Z,17.30
2018-12-29T18:40:53.065Z,19.50
2018-12-29T18:45:54.830Z,22.00
2018-12-29T18:50:56.572Z,21.73
2018-12-29T18:55:58.855Z,16.40
2018-12-29T19:01:00.853Z,20.03
2018-12-29T19:06:02.599Z,20.33
2018-12-29T19:11:04.333Z,16.37
2018-12-29T19:16:05.952Z,14.27
2018-12-29T19:21:07.662Z,13.57
2018-12-29T19:26:11.295Z,12.10
2018-12-29T19:31:13.321Z,9.70
2018-12-29T19:36:14.999Z,9.20
2018-12-29T19:41:16.722Z,9.13
2018-12-29T19:46:19.032Z,9.80
2018-12-29T19:51:20.736Z,7.30
2018-12-29T19:56:22.344Z,8.20
2018-12-29T20:01:24.060Z,6.80
2018-12-29T20:06:26.075Z,6.53
2018-12-29T20:11:27.903Z,3.90
2018-12-29T20:16:29.570Z,4.80
2018-12-29T20:21:31.235Z,6.40
2018-12-29T20:26:32.916Z,6.10
2018-12-29T20:31:34.578Z,8.57
2018-12-29T20:36:36.265Z,10.93
2018-12-29T20:41:38.311Z,10.70
2018-12-29T20:46:39.982Z,7.40
2018-12-29T20:51:41.622Z,8.50
2018-12-29T20:56:43.534Z,9.67
2018-12-29T21:01:45.179Z,11.00
2018-12-29T21:06:47.450Z,7.77
2018-12-29T21:11:49.481Z,7.10
2018-12-29T21:16:51.450Z,5.33
2018-12-29T21:21:53.096Z,4.77
2018-12-29T21:26:54.759Z,23.83
2018-12-29T21:31:56.790Z,5.60
2018-12-29T21:36:58.465Z,6.70
2018-12-29T21:42:00.165Z,6.60
2018-12-29T21:47:01.789Z,7.33
2018-12-29T21:52:03.774Z,6.93
2018-12-29T21:57:05.447Z,6.30
2018-12-29T22:02:07.063Z,6.30
2018-12-29T22:07:08.907Z,7.23
2018-12-29T22:12:10.982Z,7.10
2018-12-29T22:17:12.654Z,6.20
2018-12-29T22:22:14.308Z,6.57
2018-12-29T22:27:16.386Z,6.27
2018-12-29T22:32:18.054Z,7.53
2018-12-29T22:37:19.737Z,8.10
2018-12-29T22:42:21.521Z,8.83
2018-12-29T22:47:23.329Z,9.07
2018-12-29T22:52:25.050Z,8.63
2018-12-29T22:57:26.730Z,13.00
2018-12-29T23:02:28.939Z,12.73
2018-12-29T23:07:30.968Z,15.50
2018-12-29T23:12:32.658Z,15.27
2018-12-29T23:17:35.254Z,13.17
2018-12-29T23:22:37.355Z,9.90
2018-12-29T23:27:39.122Z,7.40
2018-12-29T23:32:42.107Z,7.10
2018-12-29T23:37:43.850Z,7.20
2018-12-29T23:42:45.621Z,5.40
2018-12-29T23:47:47.385Z,5.07
2018-12-29T23:52:49.924Z,3.63
2018-12-29T23:57:52.231Z,2.97
